sensor_id;sensor_type;location;lat;lon;timestamp;pressure;altitude;pressure_sealevel;temperature;humidity
10706;BME280;5404;42.656;23.336;2023-04-26T00:01:54;94059.50;;;9.52;100.00
10706;BME280;5404;42.656;23.336;2023-04-26T00:04:22;94061.81;;;9.45;100.00
10706;BME280;5404;42.656;23.336;2023-04-26T00:06:47;94051.78;;;9.42;100.00
10706;BME280;5404;42.656;23.336;2023-04-26T00:09:13;94041.88;;;9.34;100.00
10706;BME280;5404;42.656;23.336;2023-04-26T00:11:39;94033.63;;;9.35;100.00
10706;BME280;5404;42.656;23.336;2023-04-26T00:14:04;94037.22;;;9.39;100.00
10706;BME280;5404;42.656;23.336;2023-04-26T00:16:30;94024.06;;;9.34;100.00
10706;BME280;5404;42.656;23.336;2023-04-26T00:18:55;94026.91;;;9.38;100.00
10706;BME280;5404;42.656;23.336;2023-04-26T00:21:21;94030.31;;;9.30;100.00
10706;BME280;5404;42.656;23.336;2023-04-26T00:23:47;94020.16;;;9.10;100.00
10706;BME280;5404;42.656;23.336;2023-04-26T00:26:13;94036.41;;;9.08;100.00
10706;BME280;5404;42.656;23.336;2023-04-26T00:28:38;94031.84;;;9.00;100.00
10706;BME280;5404;42.656;23.336;2023-04-26T00:31:04;94030.44;;;9.03;100.00
10706;BME280;5404;42.656;23.336;2023-04-26T00:33:29;94024.47;;;8.97;100.00
10706;BME280;5404;42.656;23.336;2023-04-26T00:35:55;94021.75;;;8.89;100.00
10706;BME280;5404;42.656;23.336;2023-04-26T00:38:20;94006.13;;;8.87;100.00
10706;BME280;5404;42.656;23.336;2023-04-26T00:40:46;94019.75;;;8.94;100.00
10706;BME280;5404;42.656;23.336;2023-04-26T00:43:11;94019.75;;;8.94;100.00
10706;BME280;5404;42.656;23.336;2023-04-26T00:45:37;94014.19;;;8.82;100.00
10706;BME280;5404;42.656;23.336;2023-04-26T00:48:03;94011.84;;;8.81;100.00
10706;BME280;5404;42.656;23.336;2023-04-26T00:50:30;94012.63;;;8.81;100.00
10706;BME280;5404;42.656;23.336;2023-04-26T00:52:56;94023.44;;;8.85;100.00
10706;BME280;5404;42.656;23.336;2023-04-26T00:55:23;94019.94;;;8.76;100.00
10706;BME280;5404;42.656;23.336;2023-04-26T00:57:48;94016.16;;;8.68;100.00
10706;BME280;5404;42.656;23.336;2023-04-26T01:00:14;93957.41;;;8.12;100.00
10706;BME280;5404;42.656;23.336;2023-04-26T01:02:43;94027.34;;;8.65;100.00
10706;BME280;5404;42.656;23.336;2023-04-26T01:05:08;94016.97;;;8.55;100.00
10706;BME280;5404;42.656;23.336;2023-04-26T01:07:37;94027.47;;;8.60;100.00
10706;BME280;5404;42.656;23.336;2023-04-26T01:10:05;94027.59;;;8.55;100.00
10706;BME280;5404;42.656;23.336;2023-04-26T01:12:31;94029.56;;;8.50;100.00
10706;BME280;5404;42.656;23.336;2023-04-26T01:14:58;94036.88;;;8.44;100.00
10706;BME280;5404;42.656;23.336;2023-04-26T01:17:25;94033.25;;;8.40;100.00
10706;BME280;5404;42.656;23.336;2023-04-26T01:19:51;94030.09;;;8.38;100.00
10706;BME280;5404;42.656;23.336;2023-04-26T01:22:17;94011.63;;;8.33;100.00
10706;BME280;5404;42.656;23.336;2023-04-26T01:24:44;94008.28;;;8.27;100.00
10706;BME280;5404;42.656;23.336;2023-04-26T01:27:11;94016.34;;;8.22;100.00
10706;BME280;5404;42.656;23.336;2023-04-26T01:29:37;93999.47;;;8.18;100.00
10706;BME280;5404;42.656;23.336;2023-04-26T01:32:02;94005.16;;;8.12;100.00
10706;BME280;5404;42.656;23.336;2023-04-26T01:34:28;94007.91;;;8.07;100.00
10706;BME280;5404;42.656;23.336;2023-04-26T01:36:53;94010.97;;;8.00;100.00
10706;BME280;5404;42.656;23.336;2023-04-26T01:39:19;94015.78;;;7.98;100.00
10706;BME280;5404;42.656;23.336;2023-04-26T01:41:45;94019.34;;;7.94;100.00
10706;BME280;5404;42.656;23.336;2023-04-26T01:44:10;94022.41;;;7.87;100.00
10706;BME280;5404;42.656;23.336;2023-04-26T01:46:36;94028.38;;;7.79;100.00
10706;BME280;5404;42.656;23.336;2023-04-26T01:49:03;94029.28;;;7.75;100.00
10706;BME280;5404;42.656;23.336;2023-04-26T01:51:28;94021.03;;;7.63;100.00
10706;BME280;5404;42.656;23.336;2023-04-26T01:53:53;93991.19;;;7.44;100.00
10706;BME280;5404;42.656;23.336;2023-04-26T01:56:22;93988.31;;;7.40;100.00
10706;BME280;5404;42.656;23.336;2023-04-26T01:58:48;94014.63;;;7.64;100.00
10706;BME280;5404;42.656;23.336;2023-04-26T02:01:13;94003.25;;;7.63;100.00
10706;BME280;5404;42.656;23.336;2023-04-26T02:03:39;94010.31;;;7.68;100.00
10706;BME280;5404;42.656;23.336;2023-04-26T02:06:04;94009.22;;;7.69;100.00
10706;BME280;5404;42.656;23.336;2023-04-26T02:08:30;94001.69;;;7.62;100.00
10706;BME280;5404;42.656;23.336;2023-04-26T02:10:56;93995.13;;;7.60;100.00
10706;BME280;5404;42.656;23.336;2023-04-26T02:13:21;94000.41;;;7.60;100.00
10706;BME280;5404;42.656;23.336;2023-04-26T02:15:48;93931.41;;;7.10;100.00
10706;BME280;5404;42.656;23.336;2023-04-26T02:18:14;93999.22;;;7.66;100.00
10706;BME280;5404;42.656;23.336;2023-04-26T02:20:43;94000.31;;;7.65;100.00
10706;BME280;5404;42.656;23.336;2023-04-26T02:23:10;93996.56;;;7.66;100.00
10706;BME280;5404;42.656;23.336;2023-04-26T02:25:36;93997.84;;;7.68;100.00
10706;BME280;5404;42.656;23.336;2023-04-26T02:28:02;94002.25;;;7.73;100.00
10706;BME280;5404;42.656;23.336;2023-04-26T02:30:28;93997.25;;;7.71;100.00
10706;BME280;5404;42.656;23.336;2023-04-26T02:32:53;94003.56;;;7.75;100.00
10706;BME280;5404;42.656;23.336;2023-04-26T02:35:23;94005.09;;;7.76;100.00
10706;BME280;5404;42.656;23.336;2023-04-26T02:37:49;94000.91;;;7.75;100.00
10706;BME280;5404;42.656;23.336;2023-04-26T02:40:17;94009.31;;;7.77;100.00
10706;BME280;5404;42.656;23.336;2023-04-26T02:42:43;93893.34;;;7.06;100.00
10706;BME280;5404;42.656;23.336;2023-04-26T02:45:10;94010.09;;;7.91;100.00
10706;BME280;5404;42.656;23.336;2023-04-26T02:47:36;94008.03;;;8.02;100.00
10706;BME280;5404;42.656;23.336;2023-04-26T02:50:03;93992.31;;;8.05;100.00
10706;BME280;5404;42.656;23.336;2023-04-26T02:52:29;93990.03;;;8.12;100.00
10706;BME280;5404;42.656;23.336;2023-04-26T02:54:54;93988.06;;;8.18;100.00
10706;BME280;5404;42.656;23.336;2023-04-26T02:57:20;93978.69;;;8.20;100.00
10706;BME280;5404;42.656;23.336;2023-04-26T02:59:45;93986.38;;;8.22;100.00
10706;BME280;5404;42.656;23.336;2023-04-26T03:02:11;93989.53;;;8.24;100.00
10706;BME280;5404;42.656;23.336;2023-04-26T03:04:36;93986.75;;;8.29;100.00
10706;BME280;5404;42.656;23.336;2023-04-26T03:07:03;93987.06;;;8.27;100.00
10706;BME280;5404;42.656;23.336;2023-04-26T03:09:28;94001.13;;;8.28;100.00
10706;BME280;5404;42.656;23.336;2023-04-26T03:11:54;93985.22;;;8.28;100.00
10706;BME280;5404;42.656;23.336;2023-04-26T03:14:19;93980.69;;;8.29;100.00
10706;BME280;5404;42.656;23.336;2023-04-26T03:16:45;93987.31;;;8.40;100.00
10706;BME280;5404;42.656;23.336;2023-04-26T03:19:12;93855.56;;;7.64;100.00
10706;BME280;5404;42.656;23.336;2023-04-26T03:21:38;93978.00;;;8.42;100.00
10706;BME280;5404;42.656;23.336;2023-04-26T03:24:03;93990.34;;;8.47;100.00
10706;BME280;5404;42.656;23.336;2023-04-26T03:26:29;93979.06;;;8.41;100.00
10706;BME280;5404;42.656;23.336;2023-04-26T03:28:54;93990.78;;;8.40;100.00
10706;BME280;5404;42.656;23.336;2023-04-26T03:31:20;93990.66;;;8.45;100.00
10706;BME280;5404;42.656;23.336;2023-04-26T03:33:47;93988.50;;;8.47;100.00
10706;BME280;5404;42.656;23.336;2023-04-26T03:36:12;93967.97;;;8.39;100.00
10706;BME280;5404;42.656;23.336;2023-04-26T03:38:38;93995.72;;;8.55;100.00
10706;BME280;5404;42.656;23.336;2023-04-26T03:41:03;93998.38;;;8.55;100.00
10706;BME280;5404;42.656;23.336;2023-04-26T03:43:29;93994.06;;;8.59;100.00
10706;BME280;5404;42.656;23.336;2023-04-26T03:45:54;93997.06;;;8.66;100.00
10706;BME280;5404;42.656;23.336;2023-04-26T03:48:20;93992.63;;;8.75;100.00
10706;BME280;5404;42.656;23.336;2023-04-26T03:50:45;94001.88;;;8.86;100.00
10706;BME280;5404;42.656;23.336;2023-04-26T03:53:11;93992.53;;;8.89;100.00
10706;BME280;5404;42.656;23.336;2023-04-26T03:55:37;93992.72;;;8.92;100.00
10706;BME280;5404;42.656;23.336;2023-04-26T03:58:04;93997.44;;;8.95;100.00
10706;BME280;5404;42.656;23.336;2023-04-26T04:00:41;93988.22;;;9.01;100.00
10706;BME280;5404;42.656;23.336;2023-04-26T04:03:07;93997.09;;;9.19;100.00
10706;BME280;5404;42.656;23.336;2023-04-26T04:05:33;94015.13;;;9.30;100.00
10706;BME280;5404;42.656;23.336;2023-04-26T04:07:58;94010.78;;;9.34;100.00
10706;BME280;5404;42.656;23.336;2023-04-26T04:10:24;94017.72;;;9.44;100.00
10706;BME280;5404;42.656;23.336;2023-04-26T04:12:50;94017.22;;;9.42;100.00
10706;BME280;5404;42.656;23.336;2023-04-26T04:15:17;94012.69;;;9.42;100.00
10706;BME280;5404;42.656;23.336;2023-04-26T04:17:44;94009.75;;;9.44;100.00
10706;BME280;5404;42.656;23.336;2023-04-26T04:20:10;94012.44;;;9.53;100.00
10706;BME280;5404;42.656;23.336;2023-04-26T04:22:36;94018.81;;;9.52;100.00
10706;BME280;5404;42.656;23.336;2023-04-26T04:25:07;94013.84;;;9.59;100.00
10706;BME280;5404;42.656;23.336;2023-04-26T04:27:34;94010.88;;;9.60;100.00
10706;BME280;5404;42.656;23.336;2023-04-26T04:30:01;94018.00;;;9.73;100.00
10706;BME280;5404;42.656;23.336;2023-04-26T04:32:28;94019.56;;;9.83;100.00
10706;BME280;5404;42.656;23.336;2023-04-26T04:34:53;94015.22;;;9.87;100.00
10706;BME280;5404;42.656;23.336;2023-04-26T04:37:19;93937.34;;;9.47;100.00
10706;BME280;5404;42.656;23.336;2023-04-26T04:39:45;94019.84;;;10.12;100.00
10706;BME280;5404;42.656;23.336;2023-04-26T04:42:11;94022.53;;;10.20;100.00
10706;BME280;5404;42.656;23.336;2023-04-26T04:44:37;94021.44;;;10.13;100.00
10706;BME280;5404;42.656;23.336;2023-04-26T04:47:04;93991.19;;;10.09;100.00
10706;BME280;5404;42.656;23.336;2023-04-26T04:49:29;93971.56;;;10.05;100.00
10706;BME280;5404;42.656;23.336;2023-04-26T04:51:55;94004.03;;;10.15;100.00
10706;BME280;5404;42.656;23.336;2023-04-26T04:54:21;94010.00;;;10.29;100.00
10706;BME280;5404;42.656;23.336;2023-04-26T04:56:47;94001.56;;;10.44;100.00
10706;BME280;5404;42.656;23.336;2023-04-26T04:59:13;94015.03;;;10.48;100.00
10706;BME280;5404;42.656;23.336;2023-04-26T05:01:38;94015.84;;;10.57;100.00
10706;BME280;5404;42.656;23.336;2023-04-26T05:04:04;94003.00;;;10.59;100.00
10706;BME280;5404;42.656;23.336;2023-04-26T05:06:30;93899.41;;;9.98;100.00
10706;BME280;5404;42.656;23.336;2023-04-26T05:08:57;93974.78;;;10.58;100.00
10706;BME280;5404;42.656;23.336;2023-04-26T05:11:23;93991.53;;;10.76;100.00
10706;BME280;5404;42.656;23.336;2023-04-26T05:13:49;93986.69;;;10.78;100.00
10706;BME280;5404;42.656;23.336;2023-04-26T05:16:15;93988.72;;;10.89;100.00
10706;BME280;5404;42.656;23.336;2023-04-26T05:18:40;93986.97;;;11.02;100.00
10706;BME280;5404;42.656;23.336;2023-04-26T05:21:08;93989.16;;;11.08;100.00
10706;BME280;5404;42.656;23.336;2023-04-26T05:23:34;93976.47;;;11.05;100.00
10706;BME280;5404;42.656;23.336;2023-04-26T05:26:03;93973.66;;;11.02;100.00
10706;BME280;5404;42.656;23.336;2023-04-26T05:28:31;93984.47;;;11.05;100.00
10706;BME280;5404;42.656;23.336;2023-04-26T05:30:57;93983.66;;;11.05;100.00
10706;BME280;5404;42.656;23.336;2023-04-26T05:33:25;93974.09;;;11.12;100.00
10706;BME280;5404;42.656;23.336;2023-04-26T05:35:50;93887.50;;;10.72;100.00
10706;BME280;5404;42.656;23.336;2023-04-26T05:38:18;93972.28;;;11.42;100.00
10706;BME280;5404;42.656;23.336;2023-04-26T05:40:44;93981.47;;;11.61;100.00
10706;BME280;5404;42.656;23.336;2023-04-26T05:43:09;93978.75;;;11.79;100.00
10706;BME280;5404;42.656;23.336;2023-04-26T05:45:35;93973.97;;;11.93;100.00
10706;BME280;5404;42.656;23.336;2023-04-26T05:48:00;93970.28;;;12.06;100.00
10706;BME280;5404;42.656;23.336;2023-04-26T05:50:26;93982.25;;;12.00;100.00
10706;BME280;5404;42.656;23.336;2023-04-26T05:52:51;93968.72;;;12.05;100.00
10706;BME280;5404;42.656;23.336;2023-04-26T05:55:17;93965.41;;;12.08;100.00
10706;BME280;5404;42.656;23.336;2023-04-26T05:57:44;93954.72;;;12.08;100.00
10706;BME280;5404;42.656;23.336;2023-04-26T06:00:10;93956.22;;;11.97;100.00
10706;BME280;5404;42.656;23.336;2023-04-26T06:02:36;93864.69;;;11.38;100.00
10706;BME280;5404;42.656;23.336;2023-04-26T06:05:02;93963.56;;;12.00;100.00
10706;BME280;5404;42.656;23.336;2023-04-26T06:07:29;93946.84;;;11.82;100.00
10706;BME280;5404;42.656;23.336;2023-04-26T06:09:56;93956.84;;;11.94;100.00
10706;BME280;5404;42.656;23.336;2023-04-26T06:12:21;93956.09;;;12.14;100.00
10706;BME280;5404;42.656;23.336;2023-04-26T06:14:46;93952.00;;;12.37;100.00
10706;BME280;5404;42.656;23.336;2023-04-26T06:17:12;93951.56;;;12.55;100.00
10706;BME280;5404;42.656;23.336;2023-04-26T06:19:38;93934.22;;;12.61;100.00
10706;BME280;5404;42.656;23.336;2023-04-26T06:22:06;93934.44;;;12.89;100.00
10706;BME280;5404;42.656;23.336;2023-04-26T06:24:31;93935.59;;;13.00;100.00
10706;BME280;5404;42.656;23.336;2023-04-26T06:26:57;93926.31;;;13.18;100.00
10706;BME280;5404;42.656;23.336;2023-04-26T06:29:22;93937.25;;;13.25;100.00
10706;BME280;5404;42.656;23.336;2023-04-26T06:31:48;93924.78;;;13.29;100.00
10706;BME280;5404;42.656;23.336;2023-04-26T06:34:13;93847.84;;;12.81;100.00
10706;BME280;5404;42.656;23.336;2023-04-26T06:36:38;93921.03;;;13.10;100.00
10706;BME280;5404;42.656;23.336;2023-04-26T06:39:04;93913.97;;;12.60;100.00
10706;BME280;5404;42.656;23.336;2023-04-26T06:41:30;93923.19;;;12.01;100.00
10706;BME280;5404;42.656;23.336;2023-04-26T06:43:55;93919.13;;;12.04;100.00
10706;BME280;5404;42.656;23.336;2023-04-26T06:46:21;93919.38;;;12.11;100.00
10706;BME280;5404;42.656;23.336;2023-04-26T06:48:46;93933.91;;;12.22;100.00
10706;BME280;5404;42.656;23.336;2023-04-26T06:51:12;93928.03;;;12.28;100.00
10706;BME280;5404;42.656;23.336;2023-04-26T06:53:37;93917.22;;;12.25;100.00
10706;BME280;5404;42.656;23.336;2023-04-26T06:56:04;93927.41;;;12.31;100.00
10706;BME280;5404;42.656;23.336;2023-04-26T06:58:30;93923.34;;;12.25;100.00
10706;BME280;5404;42.656;23.336;2023-04-26T07:00:55;93926.34;;;12.24;100.00
10706;BME280;5404;42.656;23.336;2023-04-26T07:03:21;93764.53;;;11.20;100.00
10706;BME280;5404;42.656;23.336;2023-04-26T07:05:46;93930.84;;;12.32;100.00
10706;BME280;5404;42.656;23.336;2023-04-26T07:08:12;93926.41;;;12.36;100.00
10706;BME280;5404;42.656;23.336;2023-04-26T07:10:38;93934.56;;;12.39;100.00
10706;BME280;5404;42.656;23.336;2023-04-26T07:13:04;93930.31;;;12.38;100.00
10706;BME280;5404;42.656;23.336;2023-04-26T07:15:30;93928.88;;;12.41;100.00
10706;BME280;5404;42.656;23.336;2023-04-26T07:17:58;93936.38;;;12.27;100.00
10706;BME280;5404;42.656;23.336;2023-04-26T07:20:25;93934.63;;;12.10;100.00
10706;BME280;5404;42.656;23.336;2023-04-26T07:22:50;93937.19;;;11.98;100.00
10706;BME280;5404;42.656;23.336;2023-04-26T07:25:16;93933.28;;;11.96;100.00
10706;BME280;5404;42.656;23.336;2023-04-26T07:27:42;93934.16;;;12.08;100.00
10706;BME280;5404;42.656;23.336;2023-04-26T07:30:08;93932.84;;;12.35;100.00
10706;BME280;5404;42.656;23.336;2023-04-26T07:32:34;93904.69;;;12.58;100.00
10706;BME280;5404;42.656;23.336;2023-04-26T07:35:01;93924.25;;;13.03;100.00
10706;BME280;5404;42.656;23.336;2023-04-26T07:37:27;93937.16;;;13.01;100.00
10706;BME280;5404;42.656;23.336;2023-04-26T07:39:53;93912.25;;;12.56;100.00
10706;BME280;5404;42.656;23.336;2023-04-26T07:42:19;93925.75;;;12.59;100.00
10706;BME280;5404;42.656;23.336;2023-04-26T07:44:46;93932.00;;;12.96;100.00
10706;BME280;5404;42.656;23.336;2023-04-26T07:47:12;93844.13;;;12.50;100.00
10706;BME280;5404;42.656;23.336;2023-04-26T07:49:38;93921.69;;;12.74;100.00
10706;BME280;5404;42.656;23.336;2023-04-26T07:52:04;93926.59;;;12.72;100.00
10706;BME280;5404;42.656;23.336;2023-04-26T07:54:29;93918.44;;;12.68;100.00
10706;BME280;5404;42.656;23.336;2023-04-26T07:56:55;93929.88;;;12.89;100.00
10706;BME280;5404;42.656;23.336;2023-04-26T07:59:21;93755.31;;;11.88;100.00
10706;BME280;5404;42.656;23.336;2023-04-26T08:01:47;93924.97;;;13.12;100.00
10706;BME280;5404;42.656;23.336;2023-04-26T08:04:14;93927.28;;;13.02;100.00
10706;BME280;5404;42.656;23.336;2023-04-26T08:06:40;93930.63;;;13.11;100.00
10706;BME280;5404;42.656;23.336;2023-04-26T08:09:09;93917.00;;;13.04;100.00
10706;BME280;5404;42.656;23.336;2023-04-26T08:11:35;93926.91;;;13.36;100.00
10706;BME280;5404;42.656;23.336;2023-04-26T08:14:01;93927.91;;;13.43;100.00
10706;BME280;5404;42.656;23.336;2023-04-26T08:16:27;93925.66;;;13.45;100.00
10706;BME280;5404;42.656;23.336;2023-04-26T08:18:53;93926.31;;;13.30;100.00
10706;BME280;5404;42.656;23.336;2023-04-26T08:21:20;93934.47;;;13.34;100.00
10706;BME280;5404;42.656;23.336;2023-04-26T08:23:45;93929.03;;;13.54;100.00
10706;BME280;5404;42.656;23.336;2023-04-26T08:26:11;93942.53;;;13.46;100.00
10706;BME280;5404;42.656;23.336;2023-04-26T08:28:36;93921.34;;;13.41;100.00
10706;BME280;5404;42.656;23.336;2023-04-26T08:31:02;93939.97;;;13.61;100.00
10706;BME280;5404;42.656;23.336;2023-04-26T08:33:28;93933.84;;;13.73;100.00
10706;BME280;5404;42.656;23.336;2023-04-26T08:35:54;93869.81;;;13.44;100.00
10706;BME280;5404;42.656;23.336;2023-04-26T08:38:19;93936.63;;;13.76;100.00
10706;BME280;5404;42.656;23.336;2023-04-26T08:40:46;93903.38;;;13.29;100.00
10706;BME280;5404;42.656;23.336;2023-04-26T08:43:14;93937.78;;;13.19;100.00
10706;BME280;5404;42.656;23.336;2023-04-26T08:45:44;93863.16;;;12.93;100.00
10706;BME280;5404;42.656;23.336;2023-04-26T08:48:11;93936.34;;;13.33;100.00
10706;BME280;5404;42.656;23.336;2023-04-26T08:50:45;93932.81;;;12.97;100.00
10706;BME280;5404;42.656;23.336;2023-04-26T08:53:13;93925.25;;;12.78;100.00
10706;BME280;5404;42.656;23.336;2023-04-26T08:55:40;93922.44;;;12.74;100.00
10706;BME280;5404;42.656;23.336;2023-04-26T08:58:06;93936.31;;;13.09;100.00
10706;BME280;5404;42.656;23.336;2023-04-26T09:00:33;93938.22;;;13.09;100.00
10706;BME280;5404;42.656;23.336;2023-04-26T09:02:58;93929.75;;;13.07;100.00
10706;BME280;5404;42.656;23.336;2023-04-26T09:05:24;93938.16;;;13.29;100.00
10706;BME280;5404;42.656;23.336;2023-04-26T09:08:00;93941.28;;;13.55;100.00
10706;BME280;5404;42.656;23.336;2023-04-26T09:10:28;93947.88;;;13.46;100.00
10706;BME280;5404;42.656;23.336;2023-04-26T09:12:54;93909.50;;;13.54;100.00
10706;BME280;5404;42.656;23.336;2023-04-26T09:15:22;93948.22;;;14.04;100.00
10706;BME280;5404;42.656;23.336;2023-04-26T09:17:48;93945.41;;;14.25;100.00
10706;BME280;5404;42.656;23.336;2023-04-26T09:20:21;93958.66;;;14.58;100.00
10706;BME280;5404;42.656;23.336;2023-04-26T09:22:53;93938.44;;;14.88;100.00
10706;BME280;5404;42.656;23.336;2023-04-26T09:25:29;93937.22;;;14.58;100.00
10706;BME280;5404;42.656;23.336;2023-04-26T09:27:57;93940.44;;;14.63;100.00
10706;BME280;5404;42.656;23.336;2023-04-26T09:30:24;93942.53;;;14.70;100.00
10706;BME280;5404;42.656;23.336;2023-04-26T09:32:54;93942.09;;;14.68;100.00
10706;BME280;5404;42.656;23.336;2023-04-26T09:37:57;93945.53;;;14.17;100.00
10706;BME280;5404;42.656;23.336;2023-04-26T09:40:25;93938.56;;;14.52;100.00
10706;BME280;5404;42.656;23.336;2023-04-26T09:45:27;93929.69;;;15.03;100.00
10706;BME280;5404;42.656;23.336;2023-04-26T09:47:52;93936.59;;;15.04;100.00
10706;BME280;5404;42.656;23.336;2023-04-26T09:50:29;93923.81;;;15.13;100.00
10706;BME280;5404;42.656;23.336;2023-04-26T09:52:55;93929.47;;;14.96;100.00
10706;BME280;5404;42.656;23.336;2023-04-26T09:55:30;93934.06;;;15.39;100.00
10706;BME280;5404;42.656;23.336;2023-04-26T09:57:56;93915.47;;;15.02;100.00
10706;BME280;5404;42.656;23.336;2023-04-26T10:00:26;93929.75;;;15.65;100.00
10706;BME280;5404;42.656;23.336;2023-04-26T10:02:53;93923.06;;;16.06;100.00
10706;BME280;5404;42.656;23.336;2023-04-26T10:05:21;93922.84;;;16.65;100.00
10706;BME280;5404;42.656;23.336;2023-04-26T10:07:48;93917.56;;;16.33;100.00
10706;BME280;5404;42.656;23.336;2023-04-26T10:10:15;93916.50;;;15.88;100.00
10706;BME280;5404;42.656;23.336;2023-04-26T10:12:40;93921.50;;;16.05;100.00
10706;BME280;5404;42.656;23.336;2023-04-26T10:15:09;93914.81;;;16.14;100.00
10706;BME280;5404;42.656;23.336;2023-04-26T10:17:35;93907.72;;;16.41;100.00
10706;BME280;5404;42.656;23.336;2023-04-26T10:20:01;93845.34;;;15.97;97.64
10706;BME280;5404;42.656;23.336;2023-04-26T10:22:33;93917.63;;;16.37;96.68
10706;BME280;5404;42.656;23.336;2023-04-26T10:25:01;93894.94;;;16.19;96.86
10706;BME280;5404;42.656;23.336;2023-04-26T10:27:47;93896.19;;;16.06;96.27
10706;BME280;5404;42.656;23.336;2023-04-26T10:30:23;93903.09;;;16.22;96.15
10706;BME280;5404;42.656;23.336;2023-04-26T10:35:17;93896.31;;;15.32;96.52
10706;BME280;5404;42.656;23.336;2023-04-26T10:40:37;93902.72;;;15.58;99.21
10706;BME280;5404;42.656;23.336;2023-04-26T10:45:47;93899.03;;;15.63;95.12
10706;BME280;5404;42.656;23.336;2023-04-26T10:53:30;93911.66;;;15.78;93.20
10706;BME280;5404;42.656;23.336;2023-04-26T10:55:57;93906.47;;;15.85;89.86
10706;BME280;5404;42.656;23.336;2023-04-26T10:58:31;93903.16;;;15.91;91.53
10706;BME280;5404;42.656;23.336;2023-04-26T11:03:32;93899.84;;;16.32;89.58
10706;BME280;5404;42.656;23.336;2023-04-26T11:05:59;93906.56;;;16.58;82.84
10706;BME280;5404;42.656;23.336;2023-04-26T11:08:30;93819.88;;;15.91;82.59
10706;BME280;5404;42.656;23.336;2023-04-26T11:13:34;93901.81;;;16.16;80.98
10706;BME280;5404;42.656;23.336;2023-04-26T11:16:02;93901.81;;;16.35;85.11
10706;BME280;5404;42.656;23.336;2023-04-26T11:18:31;93913.34;;;16.52;81.92
10706;BME280;5404;42.656;23.336;2023-04-26T11:20:59;93911.00;;;16.50;80.82
10706;BME280;5404;42.656;23.336;2023-04-26T11:23:28;93902.47;;;16.64;80.72
10706;BME280;5404;42.656;23.336;2023-04-26T11:25:58;93907.91;;;16.86;80.04
10706;BME280;5404;42.656;23.336;2023-04-26T11:28:24;93905.78;;;16.57;78.16
10706;BME280;5404;42.656;23.336;2023-04-26T11:30:50;93907.34;;;16.43;81.50
10706;BME280;5404;42.656;23.336;2023-04-26T11:33:17;93896.63;;;16.08;83.35
10706;BME280;5404;42.656;23.336;2023-04-26T11:35:45;93911.88;;;16.19;83.31
10706;BME280;5404;42.656;23.336;2023-04-26T11:38:11;93917.16;;;16.16;81.79
10706;BME280;5404;42.656;23.336;2023-04-26T11:40:36;93904.69;;;16.08;86.37
10706;BME280;5404;42.656;23.336;2023-04-26T11:43:05;93908.84;;;16.05;83.56
10706;BME280;5404;42.656;23.336;2023-04-26T11:45:32;93909.63;;;16.06;79.17
10706;BME280;5404;42.656;23.336;2023-04-26T11:48:00;93905.47;;;16.08;77.61
10706;BME280;5404;42.656;23.336;2023-04-26T11:50:27;93916.69;;;16.29;77.01
10706;BME280;5404;42.656;23.336;2023-04-26T11:52:55;93908.75;;;16.17;78.11
10706;BME280;5404;42.656;23.336;2023-04-26T11:55:27;93918.53;;;16.10;81.76
10706;BME280;5404;42.656;23.336;2023-04-26T11:57:52;93898.44;;;16.19;78.73
10706;BME280;5404;42.656;23.336;2023-04-26T12:00:19;93908.19;;;15.77;77.34
10706;BME280;5404;42.656;23.336;2023-04-26T12:02:45;93905.00;;;15.56;78.81
10706;BME280;5404;42.656;23.336;2023-04-26T12:07:54;93900.22;;;15.50;84.95
10706;BME280;5404;42.656;23.336;2023-04-26T12:10:26;93891.59;;;15.56;84.25
10706;BME280;5404;42.656;23.336;2023-04-26T12:12:55;93896.50;;;15.70;86.10
10706;BME280;5404;42.656;23.336;2023-04-26T12:15:30;93885.41;;;15.87;85.86
10706;BME280;5404;42.656;23.336;2023-04-26T12:18:07;93888.78;;;15.84;84.94
10706;BME280;5404;42.656;23.336;2023-04-26T12:20:38;93901.16;;;15.88;84.90
10706;BME280;5404;42.656;23.336;2023-04-26T12:23:08;93889.88;;;15.98;84.30
10706;BME280;5404;42.656;23.336;2023-04-26T12:25:36;93886.56;;;16.05;81.88
10706;BME280;5404;42.656;23.336;2023-04-26T12:28:06;93894.06;;;15.96;80.83
10706;BME280;5404;42.656;23.336;2023-04-26T12:30:37;93897.16;;;15.98;80.80
10706;BME280;5404;42.656;23.336;2023-04-26T12:33:04;93897.66;;;16.03;83.58
10706;BME280;5404;42.656;23.336;2023-04-26T12:35:31;93893.88;;;16.04;78.59
10706;BME280;5404;42.656;23.336;2023-04-26T12:37:57;93886.38;;;16.13;77.34
10706;BME280;5404;42.656;23.336;2023-04-26T12:40:25;93850.84;;;15.85;79.22
10706;BME280;5404;42.656;23.336;2023-04-26T12:42:51;93897.59;;;15.84;81.12
10706;BME280;5404;42.656;23.336;2023-04-26T12:45:17;93889.97;;;15.86;80.84
10706;BME280;5404;42.656;23.336;2023-04-26T12:47:45;93886.50;;;16.01;79.62
10706;BME280;5404;42.656;23.336;2023-04-26T12:50:14;93848.06;;;15.82;79.01
10706;BME280;5404;42.656;23.336;2023-04-26T12:52:42;93892.84;;;15.93;79.01
10706;BME280;5404;42.656;23.336;2023-04-26T12:55:13;93893.47;;;15.71;83.23
10706;BME280;5404;42.656;23.336;2023-04-26T12:57:39;93873.63;;;15.60;83.46
10706;BME280;5404;42.656;23.336;2023-04-26T13:00:08;93882.28;;;15.38;85.50
10706;BME280;5404;42.656;23.336;2023-04-26T13:02:34;93889.44;;;15.34;90.36
10706;BME280;5404;42.656;23.336;2023-04-26T13:05:00;93897.94;;;15.36;83.26
10706;BME280;5404;42.656;23.336;2023-04-26T13:07:30;93907.38;;;15.30;83.98
10706;BME280;5404;42.656;23.336;2023-04-26T13:09:55;93890.66;;;15.21;86.24
10706;BME280;5404;42.656;23.336;2023-04-26T13:12:21;93892.13;;;15.03;91.48
10706;BME280;5404;42.656;23.336;2023-04-26T13:14:46;93907.84;;;14.89;95.78
10706;BME280;5404;42.656;23.336;2023-04-26T13:17:12;93908.56;;;14.74;97.51
10706;BME280;5404;42.656;23.336;2023-04-26T13:19:38;93914.00;;;14.77;98.91